sensor_id;sensor_type;location;lat;lon;timestamp;temperature;humidity
13482;DHT22;6813;60.352;15.746;2023-12-28T00:01:44;-3.80;99.90
13482;DHT22;6813;60.352;15.746;2023-12-28T00:04:09;-3.80;99.90
13482;DHT22;6813;60.352;15.746;2023-12-28T00:06:35;-3.90;99.90
13482;DHT22;6813;60.352;15.746;2023-12-28T00:09:00;-4.10;99.90
13482;DHT22;6813;60.352;15.746;2023-12-28T00:11:26;-3.90;99.90
13482;DHT22;6813;60.352;15.746;2023-12-28T00:13:52;-3.60;99.90
13482;DHT22;6813;60.352;15.746;2023-12-28T00:16:17;-3.50;99.90
13482;DHT22;6813;60.352;15.746;2023-12-28T00:18:43;-3.50;99.90
13482;DHT22;6813;60.352;15.746;2023-12-28T00:21:09;-3.70;99.90
13482;DHT22;6813;60.352;15.746;2023-12-28T00:23:34;-3.70;99.90
13482;DHT22;6813;60.352;15.746;2023-12-28T00:26:00;-3.60;99.90
13482;DHT22;6813;60.352;15.746;2023-12-28T00:28:26;-3.60;99.90
13482;DHT22;6813;60.352;15.746;2023-12-28T00:30:51;-3.70;99.90
13482;DHT22;6813;60.352;15.746;2023-12-28T00:33:17;-3.80;99.90
13482;DHT22;6813;60.352;15.746;2023-12-28T00:35:43;-3.70;99.90
13482;DHT22;6813;60.352;15.746;2023-12-28T00:38:08;-3.80;99.90
13482;DHT22;6813;60.352;15.746;2023-12-28T00:40:34;-3.80;99.90
13482;DHT22;6813;60.352;15.746;2023-12-28T00:43:00;-3.70;99.90
13482;DHT22;6813;60.352;15.746;2023-12-28T00:45:25;-3.60;99.90
13482;DHT22;6813;60.352;15.746;2023-12-28T00:47:51;-3.70;99.90
13482;DHT22;6813;60.352;15.746;2023-12-28T00:50:17;-3.70;99.90
13482;DHT22;6813;60.352;15.746;2023-12-28T00:52:43;-3.80;99.90
13482;DHT22;6813;60.352;15.746;2023-12-28T00:55:11;-3.80;99.90
13482;DHT22;6813;60.352;15.746;2023-12-28T00:57:36;-3.70;99.90
13482;DHT22;6813;60.352;15.746;2023-12-28T01:00:02;-3.60;99.90
13482;DHT22;6813;60.352;15.746;2023-12-28T01:02:28;-3.60;99.90
13482;DHT22;6813;60.352;15.746;2023-12-28T01:04:54;-3.60;99.90
13482;DHT22;6813;60.352;15.746;2023-12-28T01:07:20;-3.70;99.90
13482;DHT22;6813;60.352;15.746;2023-12-28T01:09:45;-3.90;99.90
13482;DHT22;6813;60.352;15.746;2023-12-28T01:12:11;-4.00;99.90
13482;DHT22;6813;60.352;15.746;2023-12-28T01:14:39;-4.00;99.90
13482;DHT22;6813;60.352;15.746;2023-12-28T01:17:05;-4.00;99.90
13482;DHT22;6813;60.352;15.746;2023-12-28T01:19:30;-4.10;99.90
13482;DHT22;6813;60.352;15.746;2023-12-28T01:21:56;-4.20;99.90
13482;DHT22;6813;60.352;15.746;2023-12-28T01:24:22;-4.20;99.90
13482;DHT22;6813;60.352;15.746;2023-12-28T01:26:47;-4.10;99.90
13482;DHT22;6813;60.352;15.746;2023-12-28T01:29:15;-3.90;99.90
13482;DHT22;6813;60.352;15.746;2023-12-28T01:31:40;-3.50;99.90
13482;DHT22;6813;60.352;15.746;2023-12-28T01:34:07;-3.40;99.90
13482;DHT22;6813;60.352;15.746;2023-12-28T01:36:34;-3.30;99.90
13482;DHT22;6813;60.352;15.746;2023-12-28T01:39:00;-3.30;99.90
13482;DHT22;6813;60.352;15.746;2023-12-28T01:41:26;-3.50;99.90
13482;DHT22;6813;60.352;15.746;2023-12-28T01:43:52;-3.70;99.90
13482;DHT22;6813;60.352;15.746;2023-12-28T01:46:19;-3.80;99.90
13482;DHT22;6813;60.352;15.746;2023-12-28T01:48:49;-4.10;99.90
13482;DHT22;6813;60.352;15.746;2023-12-28T01:51:15;-4.10;99.90
13482;DHT22;6813;60.352;15.746;2023-12-28T01:53:42;-4.00;99.90
13482;DHT22;6813;60.352;15.746;2023-12-28T01:56:09;-4.00;99.90
13482;DHT22;6813;60.352;15.746;2023-12-28T01:58:35;-4.20;99.90
13482;DHT22;6813;60.352;15.746;2023-12-28T02:01:02;-4.20;99.90
13482;DHT22;6813;60.352;15.746;2023-12-28T02:03:28;-4.20;99.90
13482;DHT22;6813;60.352;15.746;2023-12-28T02:05:54;-4.30;99.90
13482;DHT22;6813;60.352;15.746;2023-12-28T02:08:20;-4.40;99.90
13482;DHT22;6813;60.352;15.746;2023-12-28T02:10:46;-4.50;99.90
13482;DHT22;6813;60.352;15.746;2023-12-28T02:13:12;-4.50;99.90
13482;DHT22;6813;60.352;15.746;2023-12-28T02:15:38;-4.50;99.90
13482;DHT22;6813;60.352;15.746;2023-12-28T02:18:26;-4.50;99.90
13482;DHT22;6813;60.352;15.746;2023-12-28T02:20:57;-4.50;99.90
13482;DHT22;6813;60.352;15.746;2023-12-28T02:23:24;-4.40;99.90
13482;DHT22;6813;60.352;15.746;2023-12-28T02:25:50;-4.40;99.90
13482;DHT22;6813;60.352;15.746;2023-12-28T02:28:16;-4.40;99.90
13482;DHT22;6813;60.352;15.746;2023-12-28T02:30:41;-4.50;99.90
13482;DHT22;6813;60.352;15.746;2023-12-28T02:33:36;-4.50;99.90
13482;DHT22;6813;60.352;15.746;2023-12-28T02:36:13;-4.50;99.90
13482;DHT22;6813;60.352;15.746;2023-12-28T02:38:41;-4.50;99.90
13482;DHT22;6813;60.352;15.746;2023-12-28T02:41:07;-4.50;99.90
13482;DHT22;6813;60.352;15.746;2023-12-28T02:43:34;-4.50;99.90
13482;DHT22;6813;60.352;15.746;2023-12-28T02:46:00;-4.50;99.90
13482;DHT22;6813;60.352;15.746;2023-12-28T02:48:25;-4.50;99.90
13482;DHT22;6813;60.352;15.746;2023-12-28T02:50:51;-4.40;99.90
13482;DHT22;6813;60.352;15.746;2023-12-28T02:53:17;-4.40;99.90
13482;DHT22;6813;60.352;15.746;2023-12-28T02:55:43;-4.30;99.90
13482;DHT22;6813;60.352;15.746;2023-12-28T02:58:09;-4.30;99.90
13482;DHT22;6813;60.352;15.746;2023-12-28T03:00:35;-4.40;99.90
13482;DHT22;6813;60.352;15.746;2023-12-28T03:03:00;-4.50;99.90
13482;DHT22;6813;60.352;15.746;2023-12-28T03:05:26;-4.50;99.90
13482;DHT22;6813;60.352;15.746;2023-12-28T03:07:51;-4.60;99.90
13482;DHT22;6813;60.352;15.746;2023-12-28T03:10:17;-4.60;99.90
13482;DHT22;6813;60.352;15.746;2023-12-28T03:12:43;-4.50;99.90
13482;DHT22;6813;60.352;15.746;2023-12-28T03:15:09;-4.30;99.90
13482;DHT22;6813;60.352;15.746;2023-12-28T03:17:34;-4.30;99.90
13482;DHT22;6813;60.352;15.746;2023-12-28T03:20:02;-4.30;99.90
13482;DHT22;6813;60.352;15.746;2023-12-28T03:22:29;-4.40;99.90
13482;DHT22;6813;60.352;15.746;2023-12-28T03:24:55;-4.40;99.90
13482;DHT22;6813;60.352;15.746;2023-12-28T03:27:20;-4.40;99.90
13482;DHT22;6813;60.352;15.746;2023-12-28T03:29:46;-4.40;99.90
13482;DHT22;6813;60.352;15.746;2023-12-28T03:32:12;-4.40;99.90
13482;DHT22;6813;60.352;15.746;2023-12-28T03:34:37;-4.30;99.90
13482;DHT22;6813;60.352;15.746;2023-12-28T03:37:03;-4.20;99.90
13482;DHT22;6813;60.352;15.746;2023-12-28T03:39:29;-4.30;99.90
13482;DHT22;6813;60.352;15.746;2023-12-28T03:41:55;-4.40;99.90
13482;DHT22;6813;60.352;15.746;2023-12-28T03:44:21;-4.50;99.90
13482;DHT22;6813;60.352;15.746;2023-12-28T03:46:50;-4.50;99.90
13482;DHT22;6813;60.352;15.746;2023-12-28T03:49:19;-4.50;99.90
13482;DHT22;6813;60.352;15.746;2023-12-28T03:51:47;-4.50;99.90
13482;DHT22;6813;60.352;15.746;2023-12-28T03:54:16;-4.40;99.90
13482;DHT22;6813;60.352;15.746;2023-12-28T03:56:42;-4.40;99.90
13482;DHT22;6813;60.352;15.746;2023-12-28T03:59:10;-4.30;99.90
13482;DHT22;6813;60.352;15.746;2023-12-28T04:01:35;-4.40;99.90
13482;DHT22;6813;60.352;15.746;2023-12-28T04:04:02;-4.40;99.90
13482;DHT22;6813;60.352;15.746;2023-12-28T04:06:28;-4.30;99.90
13482;DHT22;6813;60.352;15.746;2023-12-28T04:08:53;-4.30;99.90
13482;DHT22;6813;60.352;15.746;2023-12-28T04:11:19;-4.20;99.90
13482;DHT22;6813;60.352;15.746;2023-12-28T04:13:45;-4.10;99.90
13482;DHT22;6813;60.352;15.746;2023-12-28T04:16:14;-4.10;99.90
13482;DHT22;6813;60.352;15.746;2023-12-28T04:18:41;-4.10;99.90
13482;DHT22;6813;60.352;15.746;2023-12-28T04:21:11;-4.10;99.90
13482;DHT22;6813;60.352;15.746;2023-12-28T04:23:38;-4.10;99.90
13482;DHT22;6813;60.352;15.746;2023-12-28T04:26:04;-4.20;99.90
13482;DHT22;6813;60.352;15.746;2023-12-28T04:28:30;-4.30;99.90
13482;DHT22;6813;60.352;15.746;2023-12-28T04:30:56;-4.30;99.90
13482;DHT22;6813;60.352;15.746;2023-12-28T04:33:22;-4.30;99.90
13482;DHT22;6813;60.352;15.746;2023-12-28T04:35:47;-4.20;99.90
13482;DHT22;6813;60.352;15.746;2023-12-28T04:38:13;-4.10;99.90
13482;DHT22;6813;60.352;15.746;2023-12-28T04:40:39;-4.00;99.90
13482;DHT22;6813;60.352;15.746;2023-12-28T04:43:05;-4.10;99.90
13482;DHT22;6813;60.352;15.746;2023-12-28T04:45:30;-4.10;99.90
13482;DHT22;6813;60.352;15.746;2023-12-28T04:47:56;-4.10;99.90
13482;DHT22;6813;60.352;15.746;2023-12-28T04:50:22;-4.10;99.90
13482;DHT22;6813;60.352;15.746;2023-12-28T04:52:47;-4.00;99.90
13482;DHT22;6813;60.352;15.746;2023-12-28T04:55:13;-3.90;99.90
13482;DHT22;6813;60.352;15.746;2023-12-28T04:57:41;-4.00;99.90
13482;DHT22;6813;60.352;15.746;2023-12-28T05:00:07;-4.00;99.90
13482;DHT22;6813;60.352;15.746;2023-12-28T05:02:34;-3.90;99.90
13482;DHT22;6813;60.352;15.746;2023-12-28T05:05:00;-3.90;99.90
13482;DHT22;6813;60.352;15.746;2023-12-28T05:07:25;-3.90;99.90
13482;DHT22;6813;60.352;15.746;2023-12-28T05:09:51;-4.00;99.90
13482;DHT22;6813;60.352;15.746;2023-12-28T05:12:17;-4.00;99.90
13482;DHT22;6813;60.352;15.746;2023-12-28T05:14:43;-4.10;99.90
13482;DHT22;6813;60.352;15.746;2023-12-28T05:17:08;-4.20;99.90
13482;DHT22;6813;60.352;15.746;2023-12-28T05:19:34;-4.10;99.90
13482;DHT22;6813;60.352;15.746;2023-12-28T05:22:00;-4.20;99.90
13482;DHT22;6813;60.352;15.746;2023-12-28T05:24:29;-4.10;99.90
13482;DHT22;6813;60.352;15.746;2023-12-28T05:26:55;-4.10;99.90
13482;DHT22;6813;60.352;15.746;2023-12-28T05:29:20;-4.10;99.90
13482;DHT22;6813;60.352;15.746;2023-12-28T05:31:46;-4.10;99.90
13482;DHT22;6813;60.352;15.746;2023-12-28T05:34:11;-4.10;99.90
13482;DHT22;6813;60.352;15.746;2023-12-28T05:36:37;-4.00;99.90
13482;DHT22;6813;60.352;15.746;2023-12-28T05:39:03;-4.10;99.90
13482;DHT22;6813;60.352;15.746;2023-12-28T05:41:29;-4.10;99.90
13482;DHT22;6813;60.352;15.746;2023-12-28T05:43:55;-4.10;99.90
13482;DHT22;6813;60.352;15.746;2023-12-28T05:46:20;-4.10;99.90
13482;DHT22;6813;60.352;15.746;2023-12-28T05:48:46;-4.10;99.90
13482;DHT22;6813;60.352;15.746;2023-12-28T05:51:12;-4.00;99.90
13482;DHT22;6813;60.352;15.746;2023-12-28T05:53:37;-4.00;99.90
13482;DHT22;6813;60.352;15.746;2023-12-28T05:56:03;-3.90;99.90
13482;DHT22;6813;60.352;15.746;2023-12-28T05:58:29;-3.90;99.90
13482;DHT22;6813;60.352;15.746;2023-12-28T06:00:55;-3.90;99.90
13482;DHT22;6813;60.352;15.746;2023-12-28T06:03:20;-3.90;99.90
13482;DHT22;6813;60.352;15.746;2023-12-28T06:05:46;-3.80;99.90
13482;DHT22;6813;60.352;15.746;2023-12-28T06:08:12;-3.80;99.90
13482;DHT22;6813;60.352;15.746;2023-12-28T06:10:38;-3.70;99.90
13482;DHT22;6813;60.352;15.746;2023-12-28T06:13:04;-3.70;99.90
13482;DHT22;6813;60.352;15.746;2023-12-28T06:15:30;-3.80;99.90
13482;DHT22;6813;60.352;15.746;2023-12-28T06:17:56;-3.80;99.90
13482;DHT22;6813;60.352;15.746;2023-12-28T06:20:21;-3.80;99.90
13482;DHT22;6813;60.352;15.746;2023-12-28T06:22:47;-3.80;99.90
13482;DHT22;6813;60.352;15.746;2023-12-28T06:25:14;-3.90;99.90
13482;DHT22;6813;60.352;15.746;2023-12-28T06:27:40;-4.00;99.90
13482;DHT22;6813;60.352;15.746;2023-12-28T06:30:06;-4.00;99.90
13482;DHT22;6813;60.352;15.746;2023-12-28T06:32:32;-4.00;99.90
13482;DHT22;6813;60.352;15.746;2023-12-28T06:34:57;-3.90;99.90
13482;DHT22;6813;60.352;15.746;2023-12-28T06:37:23;-3.90;99.90
13482;DHT22;6813;60.352;15.746;2023-12-28T06:39:49;-3.90;99.90
13482;DHT22;6813;60.352;15.746;2023-12-28T06:42:15;-3.80;99.90
13482;DHT22;6813;60.352;15.746;2023-12-28T06:44:40;-3.80;99.90
13482;DHT22;6813;60.352;15.746;2023-12-28T06:47:06;-3.80;99.90
13482;DHT22;6813;60.352;15.746;2023-12-28T06:49:31;-3.80;99.90
13482;DHT22;6813;60.352;15.746;2023-12-28T06:51:57;-3.90;99.90
13482;DHT22;6813;60.352;15.746;2023-12-28T06:54:23;-4.00;99.90
13482;DHT22;6813;60.352;15.746;2023-12-28T06:56:49;-4.20;99.90
13482;DHT22;6813;60.352;15.746;2023-12-28T06:59:17;-4.40;99.90
13482;DHT22;6813;60.352;15.746;2023-12-28T07:01:43;-4.60;99.90
13482;DHT22;6813;60.352;15.746;2023-12-28T07:04:09;-4.80;99.90
13482;DHT22;6813;60.352;15.746;2023-12-28T07:06:35;-5.00;99.90
13482;DHT22;6813;60.352;15.746;2023-12-28T07:09:01;-5.00;99.90
13482;DHT22;6813;60.352;15.746;2023-12-28T07:11:27;-4.70;99.90
13482;DHT22;6813;60.352;15.746;2023-12-28T07:13:53;-4.90;99.90
13482;DHT22;6813;60.352;15.746;2023-12-28T07:16:20;-5.00;99.90
13482;DHT22;6813;60.352;15.746;2023-12-28T07:18:45;-5.10;99.90
13482;DHT22;6813;60.352;15.746;2023-12-28T07:21:11;-5.20;99.90
13482;DHT22;6813;60.352;15.746;2023-12-28T07:23:37;-5.40;99.90
13482;DHT22;6813;60.352;15.746;2023-12-28T07:26:03;-5.50;99.90
13482;DHT22;6813;60.352;15.746;2023-12-28T07:28:29;-5.60;99.90
13482;DHT22;6813;60.352;15.746;2023-12-28T07:30:55;-5.60;99.90
13482;DHT22;6813;60.352;15.746;2023-12-28T07:33:21;-5.70;99.90
13482;DHT22;6813;60.352;15.746;2023-12-28T07:35:47;-5.60;99.90
13482;DHT22;6813;60.352;15.746;2023-12-28T07:38:13;-5.70;99.90
13482;DHT22;6813;60.352;15.746;2023-12-28T07:40:38;-5.70;99.90
13482;DHT22;6813;60.352;15.746;2023-12-28T07:43:04;-5.70;99.90
13482;DHT22;6813;60.352;15.746;2023-12-28T07:45:30;-5.70;99.90
13482;DHT22;6813;60.352;15.746;2023-12-28T07:48:00;-5.70;99.90
13482;DHT22;6813;60.352;15.746;2023-12-28T07:50:26;-5.60;99.90
13482;DHT22;6813;60.352;15.746;2023-12-28T07:52:52;-5.70;99.90
13482;DHT22;6813;60.352;15.746;2023-12-28T07:55:17;-5.80;99.90
13482;DHT22;6813;60.352;15.746;2023-12-28T07:57:43;-5.90;99.90
13482;DHT22;6813;60.352;15.746;2023-12-28T08:00:09;-5.90;99.90
13482;DHT22;6813;60.352;15.746;2023-12-28T08:02:35;-5.90;99.90
13482;DHT22;6813;60.352;15.746;2023-12-28T08:05:01;-5.80;99.90
13482;DHT22;6813;60.352;15.746;2023-12-28T08:07:27;-5.80;99.90
13482;DHT22;6813;60.352;15.746;2023-12-28T08:09:53;-5.80;99.90
13482;DHT22;6813;60.352;15.746;2023-12-28T08:12:20;-5.80;99.90
13482;DHT22;6813;60.352;15.746;2023-12-28T08:14:46;-5.60;99.90
13482;DHT22;6813;60.352;15.746;2023-12-28T08:17:12;-5.40;99.90
13482;DHT22;6813;60.352;15.746;2023-12-28T08:19:38;-5.40;99.90
13482;DHT22;6813;60.352;15.746;2023-12-28T08:22:03;-5.40;99.90
13482;DHT22;6813;60.352;15.746;2023-12-28T08:24:29;-5.40;99.90
13482;DHT22;6813;60.352;15.746;2023-12-28T08:26:54;-5.40;99.90
13482;DHT22;6813;60.352;15.746;2023-12-28T08:29:24;-5.30;99.90
13482;DHT22;6813;60.352;15.746;2023-12-28T08:31:50;-5.40;99.90
13482;DHT22;6813;60.352;15.746;2023-12-28T08:34:16;-5.30;99.90
13482;DHT22;6813;60.352;15.746;2023-12-28T08:36:41;-5.20;99.90
13482;DHT22;6813;60.352;15.746;2023-12-28T08:39:07;-5.20;99.90
13482;DHT22;6813;60.352;15.746;2023-12-28T08:41:33;-5.10;99.90
13482;DHT22;6813;60.352;15.746;2023-12-28T08:43:59;-5.00;99.90
13482;DHT22;6813;60.352;15.746;2023-12-28T08:46:25;-5.10;99.90
13482;DHT22;6813;60.352;15.746;2023-12-28T08:48:51;-5.20;99.90
13482;DHT22;6813;60.352;15.746;2023-12-28T08:51:17;-5.20;99.90
13482;DHT22;6813;60.352;15.746;2023-12-28T08:53:42;-5.30;99.90
13482;DHT22;6813;60.352;15.746;2023-12-28T08:56:19;-5.20;99.90
13482;DHT22;6813;60.352;15.746;2023-12-28T08:58:46;-5.30;99.90
13482;DHT22;6813;60.352;15.746;2023-12-28T09:01:25;-5.30;99.90
13482;DHT22;6813;60.352;15.746;2023-12-28T09:03:52;-5.30;99.90
13482;DHT22;6813;60.352;15.746;2023-12-28T09:06:18;-5.20;99.90
13482;DHT22;6813;60.352;15.746;2023-12-28T09:08:46;-5.10;99.90
13482;DHT22;6813;60.352;15.746;2023-12-28T09:11:13;-5.00;99.90
13482;DHT22;6813;60.352;15.746;2023-12-28T09:13:40;-5.00;99.90
13482;DHT22;6813;60.352;15.746;2023-12-28T09:16:10;-5.00;99.90
13482;DHT22;6813;60.352;15.746;2023-12-28T09:18:36;-4.90;99.90
13482;DHT22;6813;60.352;15.746;2023-12-28T09:21:03;-4.90;99.90
13482;DHT22;6813;60.352;15.746;2023-12-28T09:23:31;-4.90;99.90
13482;DHT22;6813;60.352;15.746;2023-12-28T09:25:57;-4.80;99.90
13482;DHT22;6813;60.352;15.746;2023-12-28T09:28:23;-4.80;99.90
13482;DHT22;6813;60.352;15.746;2023-12-28T09:30:49;-4.70;99.90
13482;DHT22;6813;60.352;15.746;2023-12-28T09:33:15;-4.50;99.90
13482;DHT22;6813;60.352;15.746;2023-12-28T09:35:41;-4.50;99.90
13482;DHT22;6813;60.352;15.746;2023-12-28T09:38:07;-4.50;99.90
13482;DHT22;6813;60.352;15.746;2023-12-28T09:40:36;-4.50;99.90
13482;DHT22;6813;60.352;15.746;2023-12-28T09:43:30;-4.40;99.90
13482;DHT22;6813;60.352;15.746;2023-12-28T09:46:05;-4.40;99.90
13482;DHT22;6813;60.352;15.746;2023-12-28T09:48:33;-4.20;99.90
13482;DHT22;6813;60.352;15.746;2023-12-28T09:50:58;-4.00;99.90
13482;DHT22;6813;60.352;15.746;2023-12-28T09:53:25;-4.00;99.90
13482;DHT22;6813;60.352;15.746;2023-12-28T09:55:52;-3.90;99.90
13482;DHT22;6813;60.352;15.746;2023-12-28T09:58:19;-3.90;99.90
13482;DHT22;6813;60.352;15.746;2023-12-28T10:00:45;-3.90;99.90
13482;DHT22;6813;60.352;15.746;2023-12-28T10:03:15;-3.90;99.90
13482;DHT22;6813;60.352;15.746;2023-12-28T10:05:42;-3.80;99.90
13482;DHT22;6813;60.352;15.746;2023-12-28T10:08:08;-3.70;99.90
13482;DHT22;6813;60.352;15.746;2023-12-28T10:10:36;-3.70;99.90
13482;DHT22;6813;60.352;15.746;2023-12-28T10:13:02;-3.60;99.90
13482;DHT22;6813;60.352;15.746;2023-12-28T10:15:28;-3.50;99.90
13482;DHT22;6813;60.352;15.746;2023-12-28T10:17:55;-3.40;99.90
13482;DHT22;6813;60.352;15.746;2023-12-28T10:20:21;-3.40;99.90
13482;DHT22;6813;60.352;15.746;2023-12-28T10:22:47;-3.30;99.90
13482;DHT22;6813;60.352;15.746;2023-12-28T10:25:13;-3.30;99.90
13482;DHT22;6813;60.352;15.746;2023-12-28T10:27:39;-3.20;99.90
13482;DHT22;6813;60.352;15.746;2023-12-28T10:30:08;-3.20;99.90
13482;DHT22;6813;60.352;15.746;2023-12-28T10:32:35;-3.10;99.90
13482;DHT22;6813;60.352;15.746;2023-12-28T10:35:02;-3.00;99.90
13482;DHT22;6813;60.352;15.746;2023-12-28T10:37:31;-2.90;99.90
13482;DHT22;6813;60.352;15.746;2023-12-28T10:39:59;-2.90;99.90
13482;DHT22;6813;60.352;15.746;2023-12-28T10:42:33;-2.90;99.90
13482;DHT22;6813;60.352;15.746;2023-12-28T10:45:05;-2.80;99.90
13482;DHT22;6813;60.352;15.746;2023-12-28T10:47:37;-2.70;99.90
13482;DHT22;6813;60.352;15.746;2023-12-28T10:50:04;-2.70;99.90
13482;DHT22;6813;60.352;15.746;2023-12-28T10:52:32;-2.60;99.90
13482;DHT22;6813;60.352;15.746;2023-12-28T10:58:10;-2.50;99.90
13482;DHT22;6813;60.352;15.746;2023-12-28T11:00:41;-2.50;99.90
13482;DHT22;6813;60.352;15.746;2023-12-28T11:03:11;-2.50;99.90
13482;DHT22;6813;60.352;15.746;2023-12-28T11:05:38;-2.40;99.90
13482;DHT22;6813;60.352;15.746;2023-12-28T11:08:06;-2.40;99.90
13482;DHT22;6813;60.352;15.746;2023-12-28T11:10:35;-2.30;99.90
13482;DHT22;6813;60.352;15.746;2023-12-28T11:13:01;-2.30;99.90
13482;DHT22;6813;60.352;15.746;2023-12-28T11:15:29;-2.20;99.90
13482;DHT22;6813;60.352;15.746;2023-12-28T11:17:56;-2.20;99.90
13482;DHT22;6813;60.352;15.746;2023-12-28T11:20:22;-2.10;99.90
13482;DHT22;6813;60.352;15.746;2023-12-28T11:22:49;-2.10;99.90
13482;DHT22;6813;60.352;15.746;2023-12-28T11:25:18;-2.00;99.90
13482;DHT22;6813;60.352;15.746;2023-12-28T11:27:45;-2.10;99.90
13482;DHT22;6813;60.352;15.746;2023-12-28T11:30:14;-2.00;99.90
13482;DHT22;6813;60.352;15.746;2023-12-28T11:32:43;-2.00;99.90
13482;DHT22;6813;60.352;15.746;2023-12-28T11:35:13;-2.10;99.90
13482;DHT22;6813;60.352;15.746;2023-12-28T11:37:46;-2.10;99.90
13482;DHT22;6813;60.352;15.746;2023-12-28T11:40:17;-2.10;99.90
13482;DHT22;6813;60.352;15.746;2023-12-28T11:42:51;-2.10;99.90
13482;DHT22;6813;60.352;15.746;2023-12-28T11:45:18;-2.20;99.90
13482;DHT22;6813;60.352;15.746;2023-12-28T11:47:44;-2.20;99.90
13482;DHT22;6813;60.352;15.746;2023-12-28T11:50:10;-2.20;99.90
13482;DHT22;6813;60.352;15.746;2023-12-28T11:52:36;-2.20;99.90
13482;DHT22;6813;60.352;15.746;2023-12-28T11:55:02;-2.30;99.90
13482;DHT22;6813;60.352;15.746;2023-12-28T11:57:28;-2.20;99.90
13482;DHT22;6813;60.352;15.746;2023-12-28T11:59:58;-2.20;99.90
13482;DHT22;6813;60.352;15.746;2023-12-28T12:02:25;-2.30;99.90
13482;DHT22;6813;60.352;15.746;2023-12-28T12:04:50;-2.30;99.90
13482;DHT22;6813;60.352;15.746;2023-12-28T12:07:16;-2.20;99.90
13482;DHT22;6813;60.352;15.746;2023-12-28T12:09:43;-2.20;99.90
13482;DHT22;6813;60.352;15.746;2023-12-28T12:12:10;-2.30;99.90
13482;DHT22;6813;60.352;15.746;2023-12-28T12:14:36;-2.30;99.90
13482;DHT22;6813;60.352;15.746;2023-12-28T12:17:02;-2.30;99.90
13482;DHT22;6813;60.352;15.746;2023-12-28T12:19:29;-2.20;99.90
13482;DHT22;6813;60.352;15.746;2023-12-28T12:21:55;-2.30;99.90
13482;DHT22;6813;60.352;15.746;2023-12-28T12:24:22;-2.20;99.90
13482;DHT22;6813;60.352;15.746;2023-12-28T12:26:49;-2.20;99.90
13482;DHT22;6813;60.352;15.746;2023-12-28T12:29:15;-2.20;99.90
13482;DHT22;6813;60.352;15.746;2023-12-28T12:31:41;-2.20;99.90
13482;DHT22;6813;60.352;15.746;2023-12-28T12:34:13;-2.10;99.90
13482;DHT22;6813;60.352;15.746;2023-12-28T12:36:39;-2.00;99.90
13482;DHT22;6813;60.352;15.746;2023-12-28T12:39:06;-1.90;99.90
13482;DHT22;6813;60.352;15.746;2023-12-28T12:41:35;-1.70;99.90
13482;DHT22;6813;60.352;15.746;2023-12-28T12:44:01;-1.70;99.90
13482;DHT22;6813;60.352;15.746;2023-12-28T12:46:27;-1.70;99.90
13482;DHT22;6813;60.352;15.746;2023-12-28T12:48:57;-1.70;99.90
13482;DHT22;6813;60.352;15.746;2023-12-28T12:51:26;-1.70;99.90
13482;DHT22;6813;60.352;15.746;2023-12-28T12:53:59;-1.80;99.90
13482;DHT22;6813;60.352;15.746;2023-12-28T12:56:29;-1.90;99.90
13482;DHT22;6813;60.352;15.746;2023-12-28T12:58:56;-1.80;99.90
13482;DHT22;6813;60.352;15.746;2023-12-28T13:01:25;-1.80;99.90
13482;DHT22;6813;60.352;15.746;2023-12-28T13:03:51;-1.90;99.90
13482;DHT22;6813;60.352;15.746;2023-12-28T13:06:17;-1.90;99.90
13482;DHT22;6813;60.352;15.746;2023-12-28T13:08:43;-1.90;99.90
13482;DHT22;6813;60.352;15.746;2023-12-28T13:11:08;-1.80;99.90
13482;DHT22;6813;60.352;15.746;2023-12-28T13:13:35;-1.80;99.90
13482;DHT22;6813;60.352;15.746;2023-12-28T13:16:02;-1.80;99.90
13482;DHT22;6813;60.352;15.746;2023-12-28T13:18:27;-1.70;99.90
13482;DHT22;6813;60.352;15.746;2023-12-28T13:20:53;-1.60;99.90
13482;DHT22;6813;60.352;15.746;2023-12-28T13:23:19;-1.50;99.90
13482;DHT22;6813;60.352;15.746;2023-12-28T13:25:45;-1.50;99.90
13482;DHT22;6813;60.352;15.746;2023-12-28T13:28:10;-1.50;99.90
13482;DHT22;6813;60.352;15.746;2023-12-28T13:30:38;-1.40;99.90
13482;DHT22;6813;60.352;15.746;2023-12-28T13:33:03;-1.20;99.90
13482;DHT22;6813;60.352;15.746;2023-12-28T13:35:30;-1.10;99.90
13482;DHT22;6813;60.352;15.746;2023-12-28T13:37:57;-1.00;99.90
13482;DHT22;6813;60.352;15.746;2023-12-28T13:40:23;-1.00;99.90
13482;DHT22;6813;60.352;15.746;2023-12-28T13:42:49;-0.90;99.90
13482;DHT22;6813;60.352;15.746;2023-12-28T13:45:14;-1.00;99.90
13482;DHT22;6813;60.352;15.746;2023-12-28T13:47:40;-0.90;99.90
13482;DHT22;6813;60.352;15.746;2023-12-28T13:50:06;-0.70;99.90
13482;DHT22;6813;60.352;15.746;2023-12-28T13:52:32;-0.80;99.90
13482;DHT22;6813;60.352;15.746;2023-12-28T13:54:57;-0.80;99.90
13482;DHT22;6813;60.352;15.746;2023-12-28T13:57:23;-0.70;99.90
13482;DHT22;6813;60.352;15.746;2023-12-28T13:59:49;-0.60;99.90
13482;DHT22;6813;60.352;15.746;2023-12-28T14:02:14;-0.50;99.90
13482;DHT22;6813;60.352;15.746;2023-12-28T14:04:40;-0.40;99.90
13482;DHT22;6813;60.352;15.746;2023-12-28T14:07:06;-0.30;99.90
13482;DHT22;6813;60.352;15.746;2023-12-28T14:09:31;-0.20;99.90
13482;DHT22;6813;60.352;15.746;2023-12-28T14:11:59;-0.20;99.90
13482;DHT22;6813;60.352;15.746;2023-12-28T14:14:26;-0.10;99.90
13482;DHT22;6813;60.352;15.746;2023-12-28T14:16:51;-0.20;99.90
13482;DHT22;6813;60.352;15.746;2023-12-28T14:19:17;-0.10;99.90
13482;DHT22;6813;60.352;15.746;2023-12-28T14:21:43;0.00;99.90
13482;DHT22;6813;60.352;15.746;2023-12-28T14:24:09;0.00;99.90
13482;DHT22;6813;60.352;15.746;2023-12-28T14:26:40;0.00;99.90
13482;DHT22;6813;60.352;15.746;2023-12-28T14:29:08;0.00;99.90
13482;DHT22;6813;60.352;15.746;2023-12-28T14:31:34;0.00;99.90
13482;DHT22;6813;60.352;15.746;2023-12-28T14:34:00;0.00;99.90
13482;DHT22;6813;60.352;15.746;2023-12-28T14:36:35;0.00;99.90
13482;DHT22;6813;60.352;15.746;2023-12-28T14:39:05;0.00;99.90
13482;DHT22;6813;60.352;15.746;2023-12-28T14:41:35;0.00;99.90
13482;DHT22;6813;60.352;15.746;2023-12-28T14:44:00;0.10;99.90
13482;DHT22;6813;60.352;15.746;2023-12-28T14:46:26;0.10;99.90
13482;DHT22;6813;60.352;15.746;2023-12-28T14:48:53;0.10;99.90
13482;DHT22;6813;60.352;15.746;2023-12-28T14:51:19;0.10;99.90
13482;DHT22;6813;60.352;15.746;2023-12-28T14:53:45;0.10;99.90
13482;DHT22;6813;60.352;15.746;2023-12-28T14:56:11;0.10;99.90
13482;DHT22;6813;60.352;15.746;2023-12-28T14:58:43;0.10;99.90
13482;DHT22;6813;60.352;15.746;2023-12-28T15:01:17;0.10;99.90
13482;DHT22;6813;60.352;15.746;2023-12-28T15:03:43;0.10;99.90
13482;DHT22;6813;60.352;15.746;2023-12-28T15:06:09;0.10;99.90
13482;DHT22;6813;60.352;15.746;2023-12-28T15:08:37;0.20;99.90
13482;DHT22;6813;60.352;15.746;2023-12-28T15:11:03;0.20;99.90
13482;DHT22;6813;60.352;15.746;2023-12-28T15:13:29;0.20;99.90
13482;DHT22;6813;60.352;15.746;2023-12-28T15:15:55;0.20;99.90
13482;DHT22;6813;60.352;15.746;2023-12-28T15:18:22;0.20;99.90
13482;DHT22;6813;60.352;15.746;2023-12-28T15:20:48;0.20;99.90
13482;DHT22;6813;60.352;15.746;2023-12-28T15:23:15;0.20;99.90
13482;DHT22;6813;60.352;15.746;2023-12-28T15:25:44;0.10;99.90
13482;DHT22;6813;60.352;15.746;2023-12-28T15:28:10;0.20;99.90
13482;DHT22;6813;60.352;15.746;2023-12-28T15:30:36;0.20;99.90
13482;DHT22;6813;60.352;15.746;2023-12-28T15:33:02;0.10;99.90